MDLR/LRM METAR and TAF weather

Enter ICAO airport designator
Station Type Date Time Source
MDLR METAR 2019/12/12 03:00 UTC NOAA

MDLR 120300Z 09008KT 9999 SCT016 22/22 Q1015


Station Type Date Time Source
MDLR Decoded METAR 2019/12/12 03:00 UTC NOAA

La Romana International Airport, Dominican Republic (MDLR) 18-25N 068-57W
Dec 11, 2019 - 10:00 PM EST / 2019.12.12 0300 UTC
Wind: from the E (090 degrees) at 9 MPH (8 KT):0
Visibility: greater than 7 mile(s):0
Sky conditions: partly cloudy
Temperature: 71 F (22 C)
Dew Point: 71 F (22 C)
Relative Humidity: 100%
Pressure (altimeter): 29.97 in. Hg (1015 hPa)
ob: MDLR 120300Z 09008KT 9999 SCT016 22/22 Q1015
cycle: 3

Station Type Date Time Source
MDLR TAF 2019/12/12 06:03 UTC NOAA

TAF MDLR 120400Z 1206/1306 06005KT 9999 SCT018 PROB30 1206/1211 8000 SHRA BKN016

Example: see airport list